Time;durP1;ratioP1;P1;durP2;ratioP2;P2;SDS_P1;SDS_P2;PMS_P1;PMS_P2;Temp;Humidity;BMP_temperature;BMP_pressure;BME280_temperature;BME280_humidity;BME280_pressure;Samples;Min_cycle;Max_cycle;Signal;HPM_P1;HPM_P2
2022/04/19 00:00:00;;;;;;;308.17;88.15;;;;;;;5.66;87.02;99328.84;342325;28;1445;-74
2022/04/19 00:00:11;;;;;;;306.90;87.50;;;;;;;5.67;87.07;99327.97;339398;29;1334;-74
2022/04/19 00:00:21;;;;;;;306.57;87.30;;;;;;;5.68;86.93;99326.22;342451;28;897;-74
2022/04/19 00:00:32;;;;;;;306.50;87.32;;;;;;;5.66;86.62;99328.84;343767;28;868;-74
2022/04/19 00:00:43;;;;;;;306.50;86.35;;;;;;;5.66;86.82;99328.00;343274;28;2119;-74
2022/04/19 00:00:54;;;;;;;307.63;86.55;;;;;;;5.68;87.11;99339.19;340998;29;909;-74
2022/04/19 00:01:04;;;;;;;308.23;87.20;;;;;;;5.69;86.90;99327.94;343686;28;853;-74
2022/04/19 00:01:15;;;;;;;308.15;89.32;;;;;;;5.71;86.92;99330.47;342236;28;1327;-74
2022/04/19 00:01:26;;;;;;;308.75;90.43;;;;;;;5.71;87.48;99327.88;342834;28;806;-74
2022/04/19 00:01:36;;;;;;;308.77;89.70;;;;;;;5.72;87.56;99332.19;343794;28;2097;-74
2022/04/19 00:01:48;;;;;;;309.15;88.28;;;;;;;5.73;87.29;99323.50;343477;28;1298;-74
2022/04/19 00:01:59;;;;;;;311.35;88.82;;;;;;;5.75;87.84;99332.13;345029;28;978;-74
2022/04/19 00:02:10;;;;;;;311.88;89.80;;;;;;;5.75;87.58;99329.50;344960;28;1919;-74
2022/04/19 00:02:21;;;;;;;309.88;88.65;;;;;;;5.74;87.71;99330.41;340921;28;1550;-74
2022/04/19 00:02:31;;;;;;;306.83;87.18;;;;;;;5.76;87.60;99328.63;343425;28;1589;-74
2022/04/19 00:02:42;;;;;;;307.73;87.97;;;;;;;5.77;87.74;99335.53;341738;28;2121;-74
2022/04/19 00:02:52;;;;;;;307.80;88.82;;;;;;;5.77;87.42;99327.72;338313;29;1365;-74
2022/04/19 00:03:02;;;;;;;308.37;89.33;;;;;;;5.77;87.41;99325.13;340932;29;1198;-74
2022/04/19 00:03:14;;;;;;;308.23;88.22;;;;;;;5.79;87.54;99331.16;343750;28;767;-74
2022/04/19 00:03:25;;;;;;;308.60;87.97;;;;;;;5.79;87.47;99328.53;342298;28;1495;-74
2022/04/19 00:03:35;;;;;;;308.70;89.20;;;;;;;5.80;87.06;99325.06;343577;28;1314;-75
2022/04/19 00:03:46;;;;;;;309.80;90.65;;;;;;;5.80;86.86;99330.25;341908;28;986;-75
2022/04/19 00:03:56;;;;;;;311.07;90.83;;;;;;;5.80;87.31;99330.25;339624;28;1295;-74
2022/04/19 00:04:06;;;;;;;311.85;91.10;;;;;;;5.82;87.00;99323.28;344006;28;1263;-74
2022/04/19 00:04:19;;;;;;;311.43;90.43;;;;;;;5.84;87.28;99331.88;343641;28;866;-74
2022/04/19 00:04:29;;;;;;;310.40;90.40;;;;;;;5.83;87.34;99336.22;339916;28;4680;-74
2022/04/19 00:04:39;;;;;;;309.63;90.07;;;;;;;5.82;87.75;99333.66;343295;28;5322;-74
2022/04/19 00:04:51;;;;;;;312.63;91.90;;;;;;;5.83;87.44;99325.84;343430;28;1291;-75
2022/04/19 00:05:02;;;;;;;312.35;91.32;;;;;;;5.79;87.44;99323.34;342222;28;1569;-75
2022/04/19 00:05:12;;;;;;;312.45;91.93;;;;;;;5.79;87.33;99323.34;343568;28;1296;-75
2022/04/19 00:05:22;;;;;;;308.43;88.77;;;;;;;5.80;87.49;99328.50;344874;28;1608;-75
2022/04/19 00:05:33;;;;;;;305.88;87.18;;;;;;;5.80;87.29;99331.09;343978;28;1851;-74
2022/04/19 00:05:44;;;;;;;304.27;85.63;;;;;;;5.80;87.11;99335.44;342468;28;1379;-74
2022/04/19 00:05:54;;;;;;;303.70;86.10;;;;;;;5.80;86.74;99333.69;340984;29;1146;-75
2022/04/19 00:06:05;;;;;;;305.35;86.97;;;;;;;5.80;86.82;99331.09;340960;28;1384;-75
2022/04/19 00:06:15;;;;;;;306.77;87.00;;;;;;;5.80;86.63;99331.09;342144;28;1655;-75
2022/04/19 00:06:25;;;;;;;308.13;86.43;;;;;;;5.80;86.81;99330.25;342257;28;1239;-75
2022/04/19 00:06:36;;;;;;;309.77;87.10;;;;;;;5.82;86.24;99331.91;344087;28;2130;-75
2022/04/19 00:06:46;;;;;;;308.85;86.97;;;;;;;5.80;86.65;99331.09;344988;28;821;-75
2022/04/19 00:06:57;;;;;;;310.07;89.00;;;;;;;5.80;86.40;99327.66;340805;28;1193;-75
2022/04/19 00:07:09;;;;;;;310.30;89.43;;;;;;;5.82;86.51;99328.47;341809;28;857;-75
2022/04/19 00:07:20;;;;;;;311.95;90.43;;;;;;;5.83;86.45;99330.16;343765;28;916;-75
2022/04/19 00:07:31;;;;;;;312.02;91.05;;;;;;;5.82;86.57;99329.31;341101;29;981;-75
2022/04/19 00:07:42;;;;;;;310.83;90.03;;;;;;;5.83;86.63;99327.56;340180;29;1319;-75
2022/04/19 00:07:52;;;;;;;310.63;90.30;;;;;;;5.83;86.73;99328.44;342234;28;1516;-75
2022/04/19 00:08:06;;;;;;;308.93;89.43;;;;;;;5.84;86.55;99327.53;343670;28;1368;-75
2022/04/19 00:08:16;;;;;;;308.48;87.43;;;;;;;5.84;86.53;99332.72;342225;28;1442;-75
2022/04/19 00:08:27;;;;;;;306.97;86.67;;;;;;;5.85;86.45;99325.78;340632;28;1339;-75
2022/04/19 00:08:37;;;;;;;307.67;87.35;;;;;;;5.85;86.17;99329.25;339688;29;826;-75
2022/04/19 00:08:50;;;;;;;306.87;87.77;;;;;;;5.86;86.26;99324.91;343389;28;840;-74
2022/04/19 00:09:00;;;;;;;308.63;89.63;;;;;;;5.86;85.94;99327.50;343743;28;979;-74
2022/04/19 00:09:11;;;;;;;309.63;90.85;;;;;;;5.85;86.22;99325.78;342301;28;1212;-74
2022/04/19 00:09:21;;;;;;;308.77;89.63;;;;;;;5.85;86.39;99331.84;340941;29;1464;-74
2022/04/19 00:09:31;;;;;;;308.05;88.35;;;;;;;5.85;86.25;99333.59;343627;28;1326;-74
2022/04/19 00:09:42;;;;;;;309.23;87.40;;;;;;;5.84;86.55;99324.94;342328;28;1069;-74
2022/04/19 00:09:52;;;;;;;312.05;89.15;;;;;;;5.85;86.60;99328.38;340895;28;1407;-74
2022/04/19 00:10:06;;;;;;;313.63;90.97;;;;;;;5.85;86.26;99333.59;339654;28;1165;-74
2022/04/19 00:10:16;;;;;;;309.80;89.82;;;;;;;5.83;86.55;99327.56;342073;28;1717;-74
2022/04/19 00:10:28;;;;;;;307.87;88.83;;;;;;;5.82;86.43;99328.47;345887;28;1286;-74
2022/04/19 00:10:40;;;;;;;309.05;89.47;;;;;;;5.81;86.58;99331.97;341016;28;1440;-74
2022/04/19 00:10:50;;;;;;;309.45;89.38;;;;;;;5.80;86.44;99332.84;345881;28;1082;-74
2022/04/19 00:11:02;;;;;;;307.70;88.20;;;;;;;5.80;86.26;99330.25;346053;28;810;-74
2022/04/19 00:11:12;;;;;;;307.00;87.70;;;;;;;5.82;86.50;99333.66;345131;28;1017;-74
2022/04/19 00:11:22;;;;;;;307.23;88.83;;;;;;;5.81;86.34;99337.16;343685;28;1234;-74
2022/04/19 00:11:33;;;;;;;307.52;88.85;;;;;;;5.82;86.50;99333.66;342085;28;2073;-74
2022/04/19 00:11:43;;;;;;;306.70;88.13;;;;;;;5.80;86.45;99327.66;340825;29;1317;-74
2022/04/19 00:11:54;;;;;;;307.88;88.18;;;;;;;5.82;86.45;99328.47;342799;28;1215;-74
2022/04/19 00:12:05;;;;;;;310.60;89.67;;;;;;;5.83;86.37;99331.03;342413;28;1389;-74
2022/04/19 00:12:16;;;;;;;313.42;91.70;;;;;;;5.84;86.21;99331.88;343615;28;1182;-74
2022/04/19 00:12:26;;;;;;;312.08;91.53;;;;;;;5.84;86.52;99332.72;343461;28;1191;-75
2022/04/19 00:12:37;;;;;;;310.53;91.17;;;;;;;5.84;86.31;99326.69;340722;28;1502;-75
2022/04/19 00:12:47;;;;;;;310.02;90.28;;;;;;;5.84;85.88;99332.72;342265;28;1327;-74
2022/04/19 00:12:58;;;;;;;310.57;90.47;;;;;;;5.85;86.00;99338.78;342470;28;932;-74
2022/04/19 00:13:10;;;;;;;308.63;88.93;;;;;;;5.84;85.93;99330.13;343612;28;2004;-74
2022/04/19 00:13:20;;;;;;;308.92;89.00;;;;;;;5.85;86.18;99328.38;342305;28;1937;-74
2022/04/19 00:13:31;;;;;;;307.23;88.53;;;;;;;5.84;85.92;99331.88;342238;28;2483;-74
2022/04/19 00:13:41;;;;;;;307.97;88.90;;;;;;;5.85;85.72;99326.66;338695;29;4205;-74
2022/04/19 00:13:52;;;;;;;305.23;86.15;;;;;;;5.86;86.01;99330.09;341598;28;3537;-74
2022/04/19 00:14:02;;;;;;;308.70;88.10;;;;;;;5.87;86.14;99331.81;342325;28;1196;-74
2022/04/19 00:14:12;;;;;;;308.33;88.23;;;;;;;5.87;85.87;99331.81;341894;28;3279;-74
2022/04/19 00:14:23;;;;;;;309.83;90.87;;;;;;;5.87;86.01;99326.59;342258;28;806;-74
2022/04/19 00:14:34;;;;;;;308.53;90.70;;;;;;;5.88;85.81;99333.50;345019;28;1086;-74
2022/04/19 00:14:44;;;;;;;309.80;91.82;;;;;;;5.86;85.59;99330.94;344715;28;1592;-74
2022/04/19 00:14:54;;;;;;;309.73;91.35;;;;;;;5.86;86.02;99330.94;344495;28;1434;-74
2022/04/19 00:15:05;;;;;;;309.90;89.97;;;;;;;5.87;85.78;99326.59;340363;28;1909;-74
2022/04/19 00:15:16;;;;;;;310.05;88.82;;;;;;;5.88;85.84;99325.72;343543;28;1448;-74
2022/04/19 00:15:28;;;;;;;310.73;88.55;;;;;;;5.89;85.62;99330.03;343805;28;1287;-74
2022/04/19 00:15:41;;;;;;;307.58;86.85;;;;;;;5.89;85.67;99335.25;343270;28;994;-74
2022/04/19 00:15:51;;;;;;;305.95;85.88;;;;;;;5.88;85.86;99333.50;342383;28;913;-74
2022/04/19 00:16:02;;;;;;;305.83;86.73;;;;;;;5.88;85.61;99326.56;344973;28;1320;-74
2022/04/19 00:16:14;;;;;;;307.73;88.97;;;;;;;5.87;85.56;99326.59;342325;28;1189;-74
2022/04/19 00:16:24;;;;;;;307.10;88.20;;;;;;;5.88;86.00;99329.16;342387;28;869;-74
2022/04/19 00:16:36;;;;;;;306.40;87.07;;;;;;;5.89;85.88;99330.03;340684;29;1912;-74
2022/04/19 00:16:46;;;;;;;306.67;86.93;;;;;;;5.87;85.87;99326.59;341874;28;834;-74
2022/04/19 00:16:57;;;;;;;306.17;87.03;;;;;;;5.88;86.02;99330.91;340860;28;1444;-74
2022/04/19 00:17:07;;;;;;;306.23;87.73;;;;;;;5.88;86.28;99325.72;342206;28;1389;-74
2022/04/19 00:17:18;;;;;;;307.73;88.80;;;;;;;5.85;86.18;99312.81;343742;28;861;-74
2022/04/19 00:17:29;;;;;;;309.85;90.22;;;;;;;5.88;86.38;99330.91;340978;29;935;-74
2022/04/19 00:17:39;;;;;;;309.83;90.30;;;;;;;5.88;86.10;99333.50;341787;28;1201;-74
2022/04/19 00:17:50;;;;;;;309.85;90.60;;;;;;;5.87;86.42;99332.66;342395;28;1326;-74
2022/04/19 00:18:02;;;;;;;309.93;90.67;;;;;;;5.87;86.21;99326.59;342243;28;865;-74
2022/04/19 00:18:13;;;;;;;308.60;88.57;;;;;;;5.85;85.97;99324.03;342472;28;897;-74
2022/04/19 00:18:23;;;;;;;307.83;87.67;;;;;;;5.85;86.05;99325.78;340983;29;984;-74
2022/04/19 00:18:33;;;;;;;308.33;87.63;;;;;;;5.86;86.35;99335.28;343706;28;1585;-74
2022/04/19 00:18:44;;;;;;;308.80;89.17;;;;;;;5.83;86.19;99322.38;343742;28;867;-74
2022/04/19 00:18:54;;;;;;;307.88;89.07;;;;;;;5.83;86.37;99324.97;339668;29;1329;-74
2022/04/19 00:19:05;;;;;;;306.40;89.37;;;;;;;5.83;86.40;99331.03;343708;28;815;-74
2022/04/19 00:19:15;;;;;;;307.02;88.53;;;;;;;5.85;86.47;99323.19;343666;28;860;-74
2022/04/19 00:19:25;;;;;;;307.47;88.57;;;;;;;5.85;85.88;99324.03;343688;28;1070;-74
2022/04/19 00:19:36;;;;;;;307.73;88.13;;;;;;;5.84;86.09;99329.28;343521;28;1023;-74
2022/04/19 00:19:46;;;;;;;306.87;88.10;;;;;;;5.81;86.09;99319.81;342246;28;826;-74
2022/04/19 00:19:57;;;;;;;307.58;88.43;;;;;;;5.85;86.56;99325.78;343990;28;2147;-74
2022/04/19 00:20:08;;;;;;;308.97;88.50;;;;;;;5.83;86.39;99319.78;344285;28;1378;-74
2022/04/19 00:20:18;;;;;;;307.63;86.78;;;;;;;5.83;86.80;99335.38;342356;28;1582;-74
2022/04/19 00:20:30;;;;;;;306.67;86.70;;;;;;;5.82;86.88;99318.94;343618;28;1187;-74
2022/04/19 00:20:42;;;;;;;306.83;87.22;;;;;;;5.85;86.35;99333.59;339686;29;831;-74
2022/04/19 00:20:52;;;;;;;308.10;88.65;;;;;;;5.84;86.49;99326.69;339717;29;811;-74
2022/04/19 00:21:03;;;;;;;306.80;87.50;;;;;;;5.85;86.25;99334.44;339700;29;956;-74
2022/04/19 00:21:13;;;;;;;306.67;88.20;;;;;;;5.86;86.25;99324.91;339751;29;829;-74
2022/04/19 00:21:24;;;;;;;307.23;89.07;;;;;;;5.85;86.00;99325.78;343778;28;1904;-74
2022/04/19 00:21:35;;;;;;;308.45;90.15;;;;;;;5.85;85.62;99329.25;343150;28;2370;-74
2022/04/19 00:21:45;;;;;;;307.85;89.38;;;;;;;5.86;85.94;99327.50;342281;28;845;-74
2022/04/19 00:21:56;;;;;;;306.93;88.40;;;;;;;5.85;85.60;99330.97;346246;28;1458;-74
2022/04/19 00:22:06;;;;;;;304.52;87.45;;;;;;;5.81;86.01;99335.41;346073;28;948;-74
2022/04/19 00:22:17;;;;;;;305.17;88.20;;;;;;;5.80;86.06;99336.28;342201;28;1968;-74
2022/04/19 00:22:28;;;;;;;307.58;89.78;;;;;;;5.80;85.75;99325.06;342321;28;977;-74
2022/04/19 00:22:38;;;;;;;310.08;90.22;;;;;;;5.82;85.64;99329.31;345023;28;844;-74
2022/04/19 00:22:52;;;;;;;308.40;89.22;;;;;;;5.81;85.81;99322.41;342997;28;4209;-74
2022/04/19 00:23:03;;;;;;;305.42;87.30;;;;;;;5.80;86.04;99325.06;340421;28;3020;-74
2022/04/19 00:23:15;;;;;;;308.33;88.57;;;;;;;5.82;86.09;99323.28;342295;28;1740;-74
2022/04/19 00:23:25;;;;;;;310.15;89.65;;;;;;;5.81;85.79;99322.41;341958;28;2930;-74
2022/04/19 00:23:36;;;;;;;309.77;89.77;;;;;;;5.81;85.99;99327.63;339610;29;1210;-74
2022/04/19 00:23:47;;;;;;;307.30;89.13;;;;;;;5.80;86.10;99325.06;340489;29;1034;-74
2022/04/19 00:23:58;;;;;;;307.38;88.18;;;;;;;5.77;85.99;99319.94;341093;29;917;-74
2022/04/19 00:24:09;;;;;;;307.90;89.00;;;;;;;5.79;85.92;99328.53;345090;28;892;-74
2022/04/19 00:24:19;;;;;;;308.58;89.43;;;;;;;5.77;85.83;99319.94;344835;28;1256;-74
2022/04/19 00:24:29;;;;;;;309.00;90.60;;;;;;;5.79;86.34;99328.53;343717;28;916;-74
2022/04/19 00:24:40;;;;;;;310.60;90.72;;;;;;;5.78;86.06;99326.84;343210;28;1834;-74
2022/04/19 00:24:50;;;;;;;310.83;91.50;;;;;;;5.79;86.13;99328.53;343600;28;814;-73
2022/04/19 00:25:01;;;;;;;311.93;91.87;;;;;;;5.80;86.00;99322.47;342046;28;1116;-73
2022/04/19 00:25:12;;;;;;;310.75;91.43;;;;;;;5.79;86.66;99320.75;341436;28;1933;-72
2022/04/19 00:25:22;;;;;;;310.10;90.35;;;;;;;5.79;86.46;99324.19;339832;29;845;-72
2022/04/19 00:25:32;;;;;;;309.93;90.87;;;;;;;5.78;86.40;99321.66;342084;28;1192;-72
2022/04/19 00:25:44;;;;;;;309.02;89.32;;;;;;;5.81;86.49;99322.41;344082;28;1036;-72
2022/04/19 00:25:54;;;;;;;307.95;88.70;;;;;;;5.79;86.76;99321.59;344749;28;1931;-72
2022/04/19 00:26:05;;;;;;;307.88;88.45;;;;;;;5.80;86.79;99325.06;342214;28;1942;-72
2022/04/19 00:26:15;;;;;;;308.60;88.97;;;;;;;5.80;86.74;99325.91;342183;28;2129;-72
2022/04/19 00:26:26;;;;;;;311.67;89.68;;;;;;;5.80;86.91;99327.66;342204;28;943;-72
2022/04/19 00:26:36;;;;;;;310.63;89.60;;;;;;;5.82;86.99;99323.28;343465;28;1665;-74
2022/04/19 00:26:46;;;;;;;310.02;89.03;;;;;;;5.80;86.82;99328.50;344042;28;1028;-74
2022/04/19 00:26:57;;;;;;;308.47;89.03;;;;;;;5.82;87.03;99318.09;343671;28;1168;-74
2022/04/19 00:27:07;;;;;;;309.95;89.55;;;;;;;5.80;86.71;99320.72;343123;28;835;-74
2022/04/19 00:27:17;;;;;;;310.90;91.27;;;;;;;5.82;86.75;99328.47;342172;28;1057;-74
2022/04/19 00:27:28;;;;;;;310.08;90.82;;;;;;;5.80;86.70;99330.25;342276;28;1435;-74
2022/04/19 00:27:38;;;;;;;309.80;90.07;;;;;;;5.78;87.09;99326.84;343617;28;923;-74
2022/04/19 00:27:49;;;;;;;310.50;89.10;;;;;;;5.77;87.03;99327.72;342236;28;1394;-74
2022/04/19 00:27:59;;;;;;;309.17;88.33;;;;;;;5.76;87.29;99326.03;342621;28;956;-74
2022/04/19 00:28:10;;;;;;;307.38;87.80;;;;;;;5.75;87.13;99327.78;340986;29;1204;-74
2022/04/19 00:28:20;;;;;;;306.30;88.30;;;;;;;5.74;87.76;99325.22;344950;28;1382;-75
2022/04/19 00:28:31;;;;;;;307.00;90.73;;;;;;;5.73;87.34;99328.69;343496;28;1194;-75
2022/04/19 00:28:41;;;;;;;306.60;90.03;;;;;;;5.72;87.39;99322.66;341056;28;1353;-75
2022/04/19 00:28:52;;;;;;;306.80;89.53;;;;;;;5.74;87.30;99325.22;338394;29;818;-75
2022/04/19 00:29:02;;;;;;;305.92;86.78;;;;;;;5.73;87.12;99326.09;342278;28;1211;-75
2022/04/19 00:29:13;;;;;;;305.50;86.07;;;;;;;5.73;87.07;99323.50;343640;28;872;-75
2022/04/19 00:29:23;;;;;;;305.58;86.07;;;;;;;5.75;87.24;99321.72;343693;28;964;-75
2022/04/19 00:29:34;;;;;;;306.67;87.67;;;;;;;5.73;86.58;99323.50;344894;28;2815;-75
2022/04/19 00:29:47;;;;;;;308.85;88.88;;;;;;;5.73;86.75;99318.31;343077;28;845;-75
2022/04/19 00:29:58;;;;;;;309.42;89.05;;;;;;;5.76;86.70;99328.63;342368;28;1577;-75
2022/04/19 00:30:09;;;;;;;309.04;88.88;;;;;;;5.76;87.04;99323.44;343683;28;849;-73
2022/04/19 00:30:20;;;;;;;307.63;88.97;;;;;;;5.76;86.61;99323.44;345005;28;895;-73
2022/04/19 00:30:31;;;;;;;307.60;88.27;;;;;;;5.77;86.70;99325.13;344893;28;864;-74
2022/04/19 00:30:42;;;;;;;307.27;88.55;;;;;;;5.77;86.42;99319.94;344839;28;1557;-74
2022/04/19 00:30:52;;;;;;;307.35;88.13;;;;;;;5.79;86.43;99323.34;340249;28;1945;-74
2022/04/19 00:31:04;;;;;;;307.02;87.95;;;;;;;5.77;86.59;99322.53;340562;29;2062;-74
2022/04/19 00:31:15;;;;;;;308.13;88.45;;;;;;;5.76;86.20;99328.63;343497;28;1499;-74
2022/04/19 00:31:25;;;;;;;308.43;88.73;;;;;;;5.77;86.42;99325.13;342358;28;912;-74
2022/04/19 00:31:35;;;;;;;308.50;88.38;;;;;;;5.76;86.02;99323.44;342145;28;1957;-74
2022/04/19 00:31:46;;;;;;;309.30;88.83;;;;;;;5.76;86.46;99328.63;343626;28;924;-74
2022/04/19 00:31:56;;;;;;;310.80;89.53;;;;;;;5.75;86.21;99321.72;343703;28;2467;-73
2022/04/19 00:32:11;;;;;;;311.87;90.70;;;;;;;5.73;86.48;99323.50;341701;28;4087;-74
2022/04/19 00:32:23;;;;;;;312.80;90.53;;;;;;;5.74;86.82;99322.63;342219;28;3106;-74
2022/04/19 00:32:34;;;;;;;315.02;90.35;;;;;;;5.75;86.32;99322.56;342343;28;1111;-74
2022/04/19 00:32:46;;;;;;;313.70;90.13;;;;;;;5.77;86.16;99319.94;343564;28;3314;-74
2022/04/19 00:32:57;;;;;;;309.52;89.00;;;;;;;5.76;86.36;99315.63;340849;28;1493;-74
2022/04/19 00:33:07;;;;;;;306.63;87.30;;;;;;;5.78;85.98;99322.50;345395;28;1228;-74
2022/04/19 00:33:18;;;;;;;305.73;86.43;;;;;;;5.78;86.05;99321.66;343749;28;817;-74
2022/04/19 00:33:29;;;;;;;305.45;86.57;;;;;;;5.78;86.32;99326.84;343814;28;806;-74
2022/04/19 00:33:44;;;;;;;305.77;87.72;;;;;;;5.78;86.10;99322.50;342301;28;875;-74
2022/04/19 00:33:54;;;;;;;305.25;87.75;;;;;;;5.78;86.29;99321.66;343352;28;1739;-74
2022/04/19 00:34:04;;;;;;;305.52;88.25;;;;;;;5.79;86.29;99325.94;343707;28;826;-74
2022/04/19 00:34:16;;;;;;;306.23;87.90;;;;;;;5.77;86.28;99320.78;343149;28;2040;-74
2022/04/19 00:34:26;;;;;;;307.80;89.15;;;;;;;5.78;86.19;99319.91;342359;28;1337;-74
2022/04/19 00:34:36;;;;;;;308.45;89.65;;;;;;;5.77;86.16;99325.13;345882;28;1326;-74
2022/04/19 00:34:47;;;;;;;308.67;90.27;;;;;;;5.78;86.40;99324.25;343181;28;984;-74
2022/04/19 00:34:59;;;;;;;310.17;90.90;;;;;;;5.79;86.37;99323.34;339606;28;1194;-73
2022/04/19 00:35:10;;;;;;;310.45;89.78;;;;;;;5.78;85.84;99329.44;342246;28;1280;-73
2022/04/19 00:35:20;;;;;;;310.48;89.30;;;;;;;5.78;85.75;99326.84;342815;28;1082;-73
2022/04/19 00:35:31;;;;;;;310.20;89.53;;;;;;;5.77;85.97;99326.00;343259;28;1614;-73
2022/04/19 00:35:42;;;;;;;308.90;88.70;;;;;;;5.78;86.04;99321.66;344984;28;842;-73
2022/04/19 00:35:52;;;;;;;307.42;87.22;;;;;;;5.77;85.97;99325.13;343974;28;824;-73
2022/04/19 00:36:02;;;;;;;306.13;85.50;;;;;;;5.75;85.78;99312.19;346152;28;2021;-73
2022/04/19 00:36:13;;;;;;;306.17;86.30;;;;;;;5.76;86.05;99324.28;346340;28;1300;-73
2022/04/19 00:36:24;;;;;;;305.92;86.68;;;;;;;5.76;85.85;99323.44;346726;28;951;-73
2022/04/19 00:36:34;;;;;;;307.67;88.17;;;;;;;5.78;86.19;99322.50;347303;28;2146;-73
2022/04/19 00:36:45;;;;;;;308.95;88.90;;;;;;;5.78;86.22;99319.91;344862;28;1488;-73
2022/04/19 00:36:55;;;;;;;309.20;89.37;;;;;;;5.81;85.75;99326.75;343658;28;1043;-73
2022/04/19 00:37:06;;;;;;;307.77;88.65;;;;;;;5.80;86.00;99322.47;342215;28;1730;-73
2022/04/19 00:37:17;;;;;;;307.27;88.80;;;;;;;5.80;85.55;99319.88;342398;28;904;-73
2022/04/19 00:37:27;;;;;;;307.30;88.65;;;;;;;5.82;85.55;99329.31;345412;28;1755;-73
2022/04/19 00:37:38;;;;;;;309.92;89.93;;;;;;;5.82;85.88;99323.28;346174;28;816;-73
2022/04/19 00:37:49;;;;;;;310.15;89.43;;;;;;;5.83;85.46;99324.97;343579;28;887;-73
2022/04/19 00:37:59;;;;;;;309.48;88.63;;;;;;;5.82;85.75;99324.13;341120;29;929;-73
2022/04/19 00:38:10;;;;;;;308.07;87.93;;;;;;;5.83;85.63;99323.25;342160;28;1189;-73
2022/04/19 00:38:21;;;;;;;308.20;87.55;;;;;;;5.83;85.69;99320.63;343661;28;1400;-73
2022/04/19 00:38:31;;;;;;;306.52;86.43;;;;;;;5.83;85.38;99325.84;339806;29;1177;-73
2022/04/19 00:38:41;;;;;;;304.93;85.07;;;;;;;5.84;85.66;99321.50;340152;29;1473;-73
2022/04/19 00:38:52;;;;;;;305.33;86.47;;;;;;;5.84;85.65;99324.09;343627;28;1569;-73
2022/04/19 00:39:02;;;;;;;307.30;88.90;;;;;;;5.83;85.39;99319.78;342086;28;2039;-73
2022/04/19 00:39:13;;;;;;;306.88;88.80;;;;;;;5.82;85.43;99328.47;343776;28;1425;-73
2022/04/19 00:39:23;;;;;;;306.60;88.13;;;;;;;5.81;85.66;99327.63;344469;28;1072;-73
2022/04/19 00:39:33;;;;;;;304.63;86.60;;;;;;;5.81;85.70;99322.41;346093;28;1359;-73
2022/04/19 00:39:44;;;;;;;305.73;87.47;;;;;;;5.80;85.59;99320.72;342366;28;849;-73
2022/04/19 00:39:57;;;;;;;306.47;88.13;;;;;;;5.82;85.25;99324.13;341044;29;921;-74
2022/04/19 00:40:08;;;;;;;307.27;88.40;;;;;;;5.82;85.34;99323.28;343624;28;1874;-74
2022/04/19 00:40:19;;;;;;;308.10;88.45;;;;;;;5.84;85.33;99321.50;345164;28;1336;-74
2022/04/19 00:40:29;;;;;;;308.92;88.82;;;;;;;5.83;85.38;99324.97;342152;28;1400;-74
2022/04/19 00:40:40;;;;;;;309.67;88.20;;;;;;;5.82;85.50;99328.47;342286;28;1334;-74
2022/04/19 00:40:50;;;;;;;309.88;89.00;;;;;;;5.80;85.49;99320.72;345512;28;1612;-74
2022/04/19 00:41:01;;;;;;;309.47;89.07;;;;;;;5.78;85.50;99322.50;346510;28;906;-74
2022/04/19 00:41:12;;;;;;;307.67;89.38;;;;;;;5.80;85.30;99323.31;342687;28;3653;-74
2022/04/19 00:41:22;;;;;;;307.02;89.07;;;;;;;5.79;85.55;99324.19;339740;29;5079;-74
2022/04/19 00:41:32;;;;;;;308.27;88.80;;;;;;;5.80;85.52;99319.88;340786;29;1486;-75
2022/04/19 00:41:43;;;;;;;309.08;88.53;;;;;;;5.80;85.28;99319.88;342161;28;1607;-74
2022/04/19 00:41:55;;;;;;;307.97;87.83;;;;;;;5.79;85.21;99324.19;342071;28;5152;-74
2022/04/19 00:42:07;;;;;;;305.90;87.25;;;;;;;5.79;85.32;99324.19;339590;29;1244;-74
2022/04/19 00:42:18;;;;;;;307.83;86.88;;;;;;;5.78;85.38;99316.47;340776;29;1940;-74
2022/04/19 00:42:28;;;;;;;309.70;88.10;;;;;;;5.80;85.16;99322.47;343581;28;1383;-74
2022/04/19 00:42:39;;;;;;;308.67;87.45;;;;;;;5.81;85.29;99326.75;344034;28;928;-74
2022/04/19 00:42:49;;;;;;;309.53;89.00;;;;;;;5.80;85.75;99325.06;340966;29;1376;-74
2022/04/19 00:43:00;;;;;;;309.50;88.93;;;;;;;5.79;85.55;99328.53;340764;29;1734;-74
2022/04/19 00:43:11;;;;;;;309.98;88.95;;;;;;;5.81;85.61;99324.16;343725;28;971;-74
2022/04/19 00:43:21;;;;;;;307.55;87.60;;;;;;;5.82;85.73;99323.28;342149;28;1342;-73
2022/04/19 00:43:32;;;;;;;308.30;88.63;;;;;;;5.79;85.99;99320.75;343663;28;1183;-73
2022/04/19 00:43:42;;;;;;;309.00;89.15;;;;;;;5.79;85.98;99320.75;342575;28;795;-73
2022/04/19 00:43:53;;;;;;;311.20;90.23;;;;;;;5.79;86.16;99318.16;343186;28;1657;-73
2022/04/19 00:44:03;;;;;;;310.95;90.32;;;;;;;5.78;85.93;99325.09;344596;28;1219;-74
2022/04/19 00:44:14;;;;;;;310.60;89.17;;;;;;;5.78;86.34;99322.50;342429;28;1133;-75
2022/04/19 00:44:24;;;;;;;309.42;88.32;;;;;;;5.77;86.79;99322.53;341185;28;1204;-75
2022/04/19 00:44:37;;;;;;;309.13;87.50;;;;;;;5.76;86.90;99324.28;343019;28;1178;-74
2022/04/19 00:44:48;;;;;;;306.90;87.50;;;;;;;5.72;86.49;99316.63;342284;28;886;-74
2022/04/19 00:45:02;;;;;;;307.30;88.60;;;;;;;5.73;86.73;99323.50;341666;28;1271;-74
2022/04/19 00:45:13;;;;;;;307.65;87.80;;;;;;;5.72;86.83;99322.66;342369;28;975;-74
2022/04/19 00:45:23;;;;;;;309.53;88.47;;;;;;;5.73;86.96;99323.50;344926;28;1234;-74
2022/04/19 00:45:34;;;;;;;310.67;89.32;;;;;;;5.73;86.79;99323.50;344980;28;922;-74
2022/04/19 00:45:45;;;;;;;310.25;89.95;;;;;;;5.72;87.04;99322.66;344564;28;1547;-74
2022/04/19 00:45:55;;;;;;;309.40;89.47;;;;;;;5.72;86.80;99327.84;341695;28;1800;-74
2022/04/19 00:46:05;;;;;;;308.42;88.88;;;;;;;5.73;86.98;99323.50;342313;28;834;-74
2022/04/19 00:46:16;;;;;;;306.47;87.00;;;;;;;5.76;86.91;99328.63;343186;28;2263;-74
2022/04/19 00:46:26;;;;;;;306.25;86.47;;;;;;;5.74;87.25;99320.88;343916;28;810;-73
2022/04/19 00:46:36;;;;;;;306.53;86.47;;;;;;;5.73;87.32;99318.31;342607;28;1871;-73
2022/04/19 00:46:48;;;;;;;308.02;87.90;;;;;;;5.74;87.72;99327.81;343616;28;834;-73
2022/04/19 00:46:58;;;;;;;308.27;89.13;;;;;;;5.72;87.95;99324.41;343566;28;841;-73
2022/04/19 00:47:09;;;;;;;307.70;88.73;;;;;;;5.71;88.16;99322.69;342895;28;1576;-73
2022/04/19 00:47:19;;;;;;;307.90;88.60;;;;;;;5.71;87.90;99320.09;342451;28;860;-73
2022/04/19 00:47:32;;;;;;;308.70;88.20;;;;;;;5.72;88.23;99322.66;339621;29;866;-73
2022/04/19 00:47:43;;;;;;;308.67;89.10;;;;;;;5.68;88.15;99327.06;342273;28;922;-73
2022/04/19 00:47:54;;;;;;;309.73;89.70;;;;;;;5.70;87.83;99327.03;343208;28;1377;-73
2022/04/19 00:48:05;;;;;;;309.13;89.95;;;;;;;5.68;88.21;99321.03;343725;28;877;-73
2022/04/19 00:48:16;;;;;;;310.73;90.68;;;;;;;5.67;88.18;99321.91;342207;28;1339;-75
2022/04/19 00:48:26;;;;;;;310.97;90.90;;;;;;;5.64;87.80;99320.25;340990;29;815;-75
2022/04/19 00:48:36;;;;;;;310.17;90.25;;;;;;;5.65;88.08;99321.97;340848;29;1327;-75
2022/04/19 00:48:47;;;;;;;308.73;88.80;;;;;;;5.65;87.61;99321.97;340691;28;2239;-74
2022/04/19 00:48:57;;;;;;;308.45;88.63;;;;;;;5.64;88.08;99320.25;343108;28;1505;-75
2022/04/19 00:49:08;;;;;;;309.90;89.37;;;;;;;5.66;87.95;99318.47;342331;28;888;-75
2022/04/19 00:49:18;;;;;;;309.55;88.47;;;;;;;5.66;87.81;99323.66;340484;29;1335;-75
2022/04/19 00:49:28;;;;;;;307.87;87.70;;;;;;;5.68;87.96;99318.44;342895;28;1429;-75
2022/04/19 00:49:43;;;;;;;307.63;87.10;;;;;;;5.68;87.72;99326.22;342203;28;1187;-75
2022/04/19 00:49:54;;;;;;;308.92;87.72;;;;;;;5.67;87.81;99321.91;344937;28;865;-74
2022/04/19 00:50:05;;;;;;;309.57;88.43;;;;;;;5.69;87.79;99320.13;343348;28;2423;-74
2022/04/19 00:50:15;;;;;;;310.33;90.00;;;;;;;5.67;88.08;99322.78;344726;28;1736;-74
2022/04/19 00:50:26;;;;;;;311.10;90.18;;;;;;;5.68;87.87;99321.03;341766;28;2782;-75
2022/04/19 00:50:36;;;;;;;311.80;90.80;;;;;;;5.65;87.75;99313.31;341064;28;5353;-74
2022/04/19 00:50:50;;;;;;;313.50;90.15;;;;;;;5.66;87.48;99317.63;342160;28;1204;-74
2022/04/19 00:51:01;;;;;;;315.40;90.35;;;;;;;5.68;87.67;99323.63;341902;28;2862;-74